Spicer, Minnesota
Current Conditions -  °F | °C
As of 5:15 PM on Tuesday 25 Nov 2014 (Local Time) from KBDH Reporting Station
Overcast Overcast  
Wind Chill: 14°   Ceiling: 4300
Heat Index: 25°   Visibility: 10mi
Dew Point: 16°   Wind: 12mph
Humidity: 69%   Direction: 120°ESE
Pressure: 29.95"   Gusts: NA
Location:  45.23°N, 94.94°W
Report Text: KBDH 252315Z AUTO 12010KT 10SM OVC043 M04/M09 A2995 RMK AO2
Loading
Personal Weather Stations






























Interactive Weather Map New forecast layout! Learn more

10-Day Weather Forecast

Advertisements
Track Severe Weather on mobile